createdAt,value
2022-09-20T00:00:14.047Z,9.80
2022-09-20T00:02:40.444Z,10.93
2022-09-20T00:05:08.507Z,10.77
2022-09-20T00:07:35.163Z,9.77
2022-09-20T00:10:01.681Z,10.80
2022-09-20T00:12:28.179Z,9.77
2022-09-20T00:14:54.715Z,9.20
2022-09-20T00:17:21.129Z,9.57
2022-09-20T00:19:47.627Z,9.37
2022-09-20T00:22:14.018Z,9.50
2022-09-20T00:24:40.442Z,9.23
2022-09-20T00:27:06.837Z,8.30
2022-09-20T00:29:33.339Z,7.97
2022-09-20T00:31:59.816Z,7.80
2022-09-20T00:34:45.161Z,7.67
2022-09-20T00:37:11.697Z,7.60
2022-09-20T00:39:38.112Z,7.47
2022-09-20T00:42:04.599Z,7.67
2022-09-20T00:44:49.819Z,7.60
2022-09-20T00:47:36.594Z,7.30
2022-09-20T00:50:06.017Z,8.23
2022-09-20T00:52:32.489Z,7.90
2022-09-20T00:54:59.037Z,8.87
2022-09-20T00:57:25.535Z,7.50
2022-09-20T00:59:51.975Z,7.33
2022-09-20T01:02:20.350Z,8.37
2022-09-20T01:04:46.882Z,7.50
2022-09-20T01:07:13.830Z,8.07
2022-09-20T01:09:40.273Z,8.33
2022-09-20T01:12:07.833Z,8.20
2022-09-20T01:14:34.267Z,9.33
2022-09-20T01:17:02.791Z,9.00
2022-09-20T01:19:38.645Z,10.13
2022-09-20T01:22:06.200Z,9.10
2022-09-20T01:24:40.524Z,10.07
2022-09-20T01:27:10.493Z,9.27
2022-09-20T01:29:57.961Z,9.50
2022-09-20T01:32:24.695Z,9.73
2022-09-20T01:34:54.775Z,7.93
2022-09-20T01:37:21.197Z,9.23
2022-09-20T01:40:06.608Z,9.50
2022-09-20T01:42:33.956Z,9.20
2022-09-20T01:45:07.604Z,8.87
2022-09-20T01:47:46.371Z,8.23
2022-09-20T01:50:31.751Z,8.13
2022-09-20T01:52:58.185Z,9.60
2022-09-20T01:55:43.383Z,8.03
2022-09-20T01:58:12.820Z,7.43
2022-09-20T02:00:39.221Z,6.83
2022-09-20T02:03:14.687Z,6.63
2022-09-20T02:05:47.956Z,6.80
2022-09-20T02:08:19.301Z,6.40
2022-09-20T02:10:52.280Z,6.40
2022-09-20T02:13:28.329Z,6.73
2022-09-20T02:16:00.914Z,7.40
2022-09-20T02:18:33.408Z,7.00
2022-09-20T02:20:59.784Z,6.30
2022-09-20T02:23:34.055Z,7.87
2022-09-20T02:26:12.054Z,7.20
2022-09-20T02:28:44.794Z,7.20
2022-09-20T02:31:29.746Z,7.50
2022-09-20T02:34:00.179Z,8.03
2022-09-20T02:36:27.302Z,8.37
2022-09-20T02:38:54.118Z,8.10
2022-09-20T02:41:23.555Z,7.50
2022-09-20T02:43:49.961Z,7.13
2022-09-20T02:46:30.369Z,7.83
2022-09-20T02:49:12.341Z,7.27
2022-09-20T02:51:43.973Z,6.30
2022-09-20T02:54:16.544Z,6.37
2022-09-20T02:56:45.589Z,6.40
2022-09-20T02:59:31.013Z,6.77
2022-09-20T03:02:14.639Z,6.07
2022-09-20T03:04:46.048Z,6.27
2022-09-20T03:07:42.037Z,7.30
2022-09-20T03:10:14.389Z,6.27
2022-09-20T03:12:40.814Z,6.37
2022-09-20T03:15:11.231Z,6.30
2022-09-20T03:17:43.840Z,6.17
2022-09-20T03:20:31.517Z,6.33
2022-09-20T03:23:00.079Z,5.87
2022-09-20T03:25:45.126Z,5.90
2022-09-20T03:28:11.739Z,7.70
2022-09-20T03:30:44.213Z,8.17
2022-09-20T03:33:13.029Z,7.87
2022-09-20T03:35:58.484Z,8.20
2022-09-20T03:38:43.784Z,7.50
2022-09-20T03:41:10.216Z,6.23
2022-09-20T03:43:36.621Z,5.50
2022-09-20T03:46:04.404Z,5.60
2022-09-20T03:48:36.465Z,6.83
2022-09-20T03:51:38.681Z,5.67
2022-09-20T03:54:23.256Z,5.83
2022-09-20T03:57:05.123Z,6.10
2022-09-20T03:59:50.490Z,6.00
2022-09-20T04:02:27.181Z,5.77
2022-09-20T04:05:02.869Z,5.80
2022-09-20T04:07:29.289Z,6.27
2022-09-20T04:10:14.571Z,7.03
2022-09-20T04:12:42.834Z,6.17
2022-09-20T04:15:21.677Z,7.03
2022-09-20T04:17:51.007Z,7.13
2022-09-20T04:20:23.971Z,7.10
2022-09-20T04:22:51.438Z,6.90
2022-09-20T04:25:19.285Z,7.33
2022-09-20T04:27:47.221Z,5.97
2022-09-20T04:30:17.789Z,6.33
2022-09-20T04:32:47.261Z,5.80
2022-09-20T04:35:32.381Z,6.77
2022-09-20T04:37:59.633Z,6.00
2022-09-20T04:40:31.255Z,6.00
2022-09-20T04:43:32.011Z,5.97
2022-09-20T04:46:16.489Z,7.00
2022-09-20T04:48:42.928Z,6.90
2022-09-20T04:51:28.584Z,6.47
2022-09-20T04:54:01.017Z,5.83
2022-09-20T04:56:33.599Z,5.50
2022-09-20T04:59:10.332Z,5.20
2022-09-20T05:01:39.983Z,6.27
2022-09-20T05:04:06.443Z,6.27
2022-09-20T05:06:39.109Z,5.47
2022-09-20T05:09:24.369Z,6.80
2022-09-20T05:11:56.811Z,8.43
2022-09-20T05:14:36.494Z,6.17
2022-09-20T05:17:15.173Z,6.23
2022-09-20T05:19:43.722Z,6.50
2022-09-20T05:22:17.539Z,6.73
2022-09-20T05:24:44.307Z,7.47
2022-09-20T05:27:20.022Z,7.03
2022-09-20T05:29:51.291Z,7.20
2022-09-20T05:32:18.498Z,7.03
2022-09-20T05:37:29.694Z,6.93
2022-09-20T05:40:13.227Z,8.03
2022-09-20T05:42:54.135Z,7.97
2022-09-20T05:45:23.859Z,8.10
2022-09-20T05:47:56.360Z,7.30
2022-09-20T05:50:41.794Z,7.13
2022-09-20T05:53:20.495Z,8.00
2022-09-20T05:55:50.783Z,7.10
2022-09-20T05:58:29.584Z,7.37
2022-09-20T06:01:01.077Z,8.27
2022-09-20T06:03:33.589Z,7.87
2022-09-20T06:06:00.118Z,8.07
2022-09-20T06:08:29.639Z,8.90
2022-09-20T06:11:00.197Z,9.80
2022-09-20T06:13:36.089Z,8.87
2022-09-20T06:16:04.577Z,9.53
2022-09-20T06:18:36.619Z,9.90
2022-09-20T06:21:21.888Z,8.73
2022-09-20T06:23:48.374Z,9.30
2022-09-20T06:26:17.424Z,8.87
2022-09-20T06:28:48.595Z,10.37
2022-09-20T06:31:17.434Z,10.57
2022-09-20T06:33:45.354Z,9.50
2022-09-20T06:36:39.809Z,9.97
2022-09-20T06:39:48.896Z,10.73
2022-09-20T06:42:15.735Z,10.23
2022-09-20T06:44:43.428Z,10.50
2022-09-20T06:47:13.967Z,10.47
2022-09-20T06:49:42.870Z,10.07
2022-09-20T06:52:15.809Z,10.33
2022-09-20T06:54:45.917Z,10.00
2022-09-20T06:57:19.881Z,9.83
2022-09-20T06:59:46.310Z,9.77
2022-09-20T07:02:12.858Z,9.77
2022-09-20T07:04:40.134Z,10.20
2022-09-20T07:07:09.416Z,10.03
2022-09-20T07:09:36.246Z,10.20
2022-09-20T07:12:02.853Z,9.40
2022-09-20T07:14:29.330Z,10.10
2022-09-20T07:16:55.937Z,9.93
2022-09-20T07:19:23.503Z,10.47
2022-09-20T07:21:50.018Z,9.90
2022-09-20T07:24:16.556Z,9.77
2022-09-20T07:26:54.804Z,10.37
2022-09-20T07:29:21.524Z,10.10
2022-09-20T07:31:50.782Z,10.53
2022-09-20T07:34:20.566Z,9.80
2022-09-20T07:36:47.610Z,9.53
2022-09-20T07:39:14.173Z,10.40
2022-09-20T07:41:40.629Z,9.93
2022-09-20T07:44:24.548Z,10.23
2022-09-20T07:46:51.911Z,10.73
2022-09-20T07:49:18.694Z,11.40
2022-09-20T07:51:45.333Z,10.63
2022-09-20T07:54:12.035Z,11.10
2022-09-20T07:56:38.776Z,8.60
2022-09-20T07:59:05.974Z,8.70
2022-09-20T08:01:32.628Z,8.73
2022-09-20T08:04:00.633Z,8.07
2022-09-20T08:06:27.198Z,7.33
2022-09-20T08:08:54.548Z,8.87
2022-09-20T08:11:27.815Z,7.67
2022-09-20T08:14:09.757Z,8.73
2022-09-20T08:16:39.981Z,8.97
2022-09-20T08:19:06.601Z,7.87
2022-09-20T08:21:34.245Z,7.63
2022-09-20T08:24:01.100Z,6.83
2022-09-20T08:26:28.101Z,7.40
2022-09-20T08:28:58.220Z,8.20
2022-09-20T08:31:26.007Z,7.63
2022-09-20T08:33:52.638Z,8.03
2022-09-20T08:36:19.762Z,9.33
2022-09-20T08:41:32.887Z,9.57
2022-09-20T08:44:00.277Z,8.87
2022-09-20T08:46:28.893Z,6.87
2022-09-20T08:48:55.934Z,7.43
2022-09-20T08:51:23.458Z,6.80
2022-09-20T08:53:50.872Z,7.37
2022-09-20T08:56:17.615Z,6.63
2022-09-20T08:58:44.112Z,7.07
2022-09-20T09:01:14.702Z,5.97
2022-09-20T09:03:41.198Z,7.10
2022-09-20T09:06:14.197Z,7.07
2022-09-20T09:08:43.028Z,6.73
2022-09-20T09:11:15.948Z,6.77
2022-09-20T09:13:45.520Z,7.10
2022-09-20T09:16:13.033Z,6.40
2022-09-20T09:18:40.200Z,7.20
2022-09-20T09:21:07.516Z,7.40
2022-09-20T09:23:39.841Z,7.40
2022-09-20T09:26:06.329Z,6.77
2022-09-20T09:28:36.976Z,7.77
2022-09-20T09:31:33.209Z,6.90
2022-09-20T09:33:59.798Z,4.80
2022-09-20T09:36:26.384Z,3.80
2022-09-20T09:39:12.868Z,3.20
2022-09-20T09:41:39.331Z,3.10
2022-09-20T09:44:10.478Z,3.30
2022-09-20T09:46:38.052Z,2.17
2022-09-20T09:49:14.050Z,1.50
2022-09-20T09:51:43.209Z,1.67
2022-09-20T09:54:12.617Z,1.90
2022-09-20T09:56:47.459Z,1.97
2022-09-20T09:59:23.007Z,2.93
2022-09-20T10:02:11.104Z,2.17
2022-09-20T10:04:40.128Z,1.73
2022-09-20T10:07:09.380Z,1.73
2022-09-20T10:09:52.096Z,1.60
2022-09-20T10:12:32.292Z,1.23
2022-09-20T10:15:07.289Z,1.17
2022-09-20T10:17:52.939Z,1.33
2022-09-20T10:20:28.758Z,1.30
2022-09-20T10:23:34.470Z,1.03
2022-09-20T10:25:55.092Z,1.50
2022-09-20T10:28:33.864Z,1.30
2022-09-20T10:31:23.465Z,1.10
2022-09-20T10:34:10.822Z,0.77
2022-09-20T10:36:37.265Z,0.68
2022-09-20T10:39:11.299Z,0.60
2022-09-20T10:42:12.331Z,0.53
2022-09-20T10:44:41.632Z,0.70
2022-09-20T10:47:11.893Z,0.60
2022-09-20T10:49:42.198Z,0.70
2022-09-20T10:52:27.488Z,0.70
2022-09-20T10:55:15.905Z,0.70
2022-09-20T10:58:03.426Z,0.70
2022-09-20T11:00:48.897Z,0.70
2022-09-20T11:03:35.609Z,1.00
2022-09-20T11:06:06.653Z,1.00
2022-09-20T11:08:34.223Z,0.63
2022-09-20T11:11:24.090Z,0.80
2022-09-20T11:13:53.412Z,0.70
2022-09-20T11:16:22.953Z,0.90
2022-09-20T11:18:52.244Z,1.27
2022-09-20T11:21:20.684Z,1.40
2022-09-20T11:24:07.472Z,1.67
2022-09-20T11:26:52.725Z,1.50
2022-09-20T11:29:20.569Z,1.87
2022-09-20T11:31:47.419Z,2.00
2022-09-20T11:34:26.757Z,2.10
2022-09-20T11:36:54.788Z,1.90
2022-09-20T11:39:40.384Z,2.03
2022-09-20T11:42:06.912Z,1.77
2022-09-20T11:44:33.473Z,2.40
2022-09-20T11:47:22.883Z,2.63
2022-09-20T11:50:08.283Z,2.93
2022-09-20T11:52:37.652Z,3.00
2022-09-20T11:55:04.352Z,2.47
2022-09-20T11:57:30.888Z,1.90
2022-09-20T11:59:58.846Z,1.77
2022-09-20T12:02:41.794Z,1.30
2022-09-20T12:05:20.611Z,1.00
2022-09-20T12:07:47.089Z,1.00
2022-09-20T12:10:19.894Z,0.98
2022-09-20T12:12:47.241Z,1.00
2022-09-20T12:15:27.114Z,0.97
2022-09-20T12:17:53.569Z,1.10
2022-09-20T12:20:35.306Z,0.63
2022-09-20T12:23:21.435Z,0.77
2022-09-20T12:26:06.922Z,0.60
2022-09-20T12:28:37.790Z,1.00
2022-09-20T12:31:33.671Z,1.73
2022-09-20T12:34:12.355Z,1.13
2022-09-20T12:36:46.888Z,1.00
2022-09-20T12:39:17.532Z,0.70
2022-09-20T12:41:48.344Z,0.80
2022-09-20T12:44:27.222Z,0.70
2022-09-20T12:46:55.298Z,0.93
2022-09-20T12:49:46.572Z,0.80
2022-09-20T12:52:48.228Z,0.80
2022-09-20T12:55:30.227Z,0.80
2022-09-20T12:58:05.840Z,1.02
2022-09-20T13:00:38.989Z,0.80
2022-09-20T13:03:14.870Z,0.80
2022-09-20T13:05:47.968Z,0.90
2022-09-20T13:08:25.290Z,0.90
2022-09-20T13:10:57.980Z,1.33
2022-09-20T13:13:35.622Z,1.95
2022-09-20T13:16:02.310Z,11.32
2022-09-20T13:18:29.136Z,7.00
2022-09-20T13:20:56.059Z,14.43
2022-09-20T13:23:24.696Z,11.82
2022-09-20T13:25:51.420Z,4.90
2022-09-20T13:28:29.836Z,2.20
2022-09-20T13:31:15.215Z,1.33
2022-09-20T13:33:41.646Z,1.25
2022-09-20T13:36:08.164Z,1.40
2022-09-20T13:38:35.006Z,1.10
2022-09-20T13:41:04.002Z,1.67
2022-09-20T13:43:30.405Z,1.00
2022-09-20T13:46:00.884Z,2.63
2022-09-20T13:48:27.695Z,3.35
2022-09-20T13:50:54.963Z,1.98
2022-09-20T13:53:39.746Z,5.28
2022-09-20T13:56:25.626Z,2.03
2022-09-20T13:58:53.019Z,2.75
2022-09-20T14:01:29.433Z,1.50
2022-09-20T14:03:57.555Z,1.40
2022-09-20T14:06:28.268Z,1.83
2022-09-20T14:08:54.912Z,2.25
2022-09-20T14:11:22.568Z,2.88
2022-09-20T14:13:50.003Z,2.17
2022-09-20T14:16:16.584Z,3.00
2022-09-20T14:18:43.187Z,1.63
2022-09-20T14:21:10.042Z,2.13
2022-09-20T14:23:52.654Z,2.70
2022-09-20T14:26:23.369Z,1.42
2022-09-20T14:28:50.009Z,1.33
2022-09-20T14:31:17.489Z,1.48
2022-09-20T14:33:45.220Z,1.27
2022-09-20T14:36:13.156Z,1.17
2022-09-20T14:38:39.672Z,1.00
2022-09-20T14:41:06.375Z,1.20
2022-09-20T14:43:33.986Z,2.28
2022-09-20T14:46:02.856Z,1.50
2022-09-20T14:48:33.575Z,2.13
2022-09-20T14:51:22.169Z,2.22
2022-09-20T14:53:49.759Z,1.88
2022-09-20T14:56:16.820Z,3.50
2022-09-20T14:59:03.418Z,1.75
2022-09-20T15:01:29.959Z,1.70
2022-09-20T15:03:57.101Z,3.00
2022-09-20T15:06:23.551Z,1.80
2022-09-20T15:08:49.988Z,1.17
2022-09-20T15:11:16.912Z,0.98
2022-09-20T15:13:43.404Z,1.20
2022-09-20T15:16:10.824Z,1.10
2022-09-20T15:18:39.746Z,1.33
2022-09-20T15:21:06.384Z,3.95
2022-09-20T15:23:33.075Z,3.42
2022-09-20T15:26:00.402Z,4.63
2022-09-20T15:28:27.918Z,9.25
2022-09-20T15:30:54.478Z,2.78
2022-09-20T15:33:21.161Z,2.50
2022-09-20T15:35:47.804Z,1.85
2022-09-20T15:38:15.298Z,1.90
2022-09-20T15:40:42.255Z,2.42
2022-09-20T15:43:11.630Z,1.40
2022-09-20T15:45:41.415Z,1.80
2022-09-20T15:48:08.520Z,1.45
2022-09-20T15:50:35.008Z,1.50
2022-09-20T15:53:01.655Z,2.17
2022-09-20T15:55:28.178Z,2.08
2022-09-20T15:57:54.666Z,2.30
2022-09-20T16:00:21.255Z,2.53
2022-09-20T16:02:50.899Z,2.65
2022-09-20T16:05:17.501Z,2.35
2022-09-20T16:07:44.116Z,1.60
2022-09-20T16:10:10.574Z,2.03
2022-09-20T16:12:37.286Z,2.65
2022-09-20T16:15:04.090Z,3.20
2022-09-20T16:17:56.944Z,3.75
2022-09-20T16:20:23.652Z,2.33
2022-09-20T16:22:50.359Z,2.22
2022-09-20T16:25:16.867Z,2.60
2022-09-20T16:27:43.355Z,2.10
2022-09-20T16:30:10.477Z,3.00
2022-09-20T16:32:37.479Z,3.25
2022-09-20T16:35:07.229Z,3.78
2022-09-20T16:37:33.770Z,3.88
2022-09-20T16:40:00.638Z,3.78
2022-09-20T16:42:27.664Z,3.35
2022-09-20T16:44:54.239Z,2.58
2022-09-20T16:47:23.373Z,4.10
2022-09-20T16:49:51.037Z,2.70
2022-09-20T16:52:18.042Z,2.40
2022-09-20T16:54:45.090Z,2.00
2022-09-20T16:57:13.427Z,2.13
2022-09-20T16:59:39.953Z,3.35
2022-09-20T17:02:06.717Z,3.00
2022-09-20T17:04:33.424Z,3.22
2022-09-20T17:07:02.615Z,2.55
2022-09-20T17:09:29.250Z,3.83
2022-09-20T17:11:55.966Z,2.97
2022-09-20T17:14:23.179Z,3.13
2022-09-20T17:16:50.581Z,4.43
2022-09-20T17:19:19.064Z,3.67
2022-09-20T17:21:50.848Z,6.38
2022-09-20T17:24:21.861Z,5.70
2022-09-20T17:26:49.518Z,4.95
2022-09-20T17:29:18.137Z,4.47
2022-09-20T17:31:48.747Z,4.38
2022-09-20T17:34:21.755Z,4.25
2022-09-20T17:36:48.785Z,4.55
2022-09-20T17:39:15.514Z,4.60
2022-09-20T17:41:48.556Z,5.22
2022-09-20T17:44:17.742Z,4.50
2022-09-20T17:46:45.402Z,4.35
2022-09-20T17:49:12.960Z,4.47
2022-09-20T17:51:40.311Z,5.10
2022-09-20T17:54:07.918Z,4.85
2022-09-20T17:56:37.238Z,6.30
2022-09-20T17:59:04.246Z,7.03
2022-09-20T18:01:31.074Z,10.52
2022-09-20T18:04:00.370Z,16.75
2022-09-20T18:06:30.960Z,20.80
2022-09-20T18:08:59.392Z,16.20
2022-09-20T18:11:35.943Z,10.52
2022-09-20T18:14:02.903Z,9.70
2022-09-20T18:16:31.275Z,12.47
2022-09-20T18:18:59.386Z,11.82
2022-09-20T18:21:29.226Z,11.07
2022-09-20T18:23:56.390Z,9.63
2022-09-20T18:26:30.842Z,8.90
2022-09-20T18:29:05.035Z,7.70
2022-09-20T18:31:32.517Z,8.70
2022-09-20T18:34:00.729Z,9.65
2022-09-20T18:36:28.235Z,10.70
2022-09-20T18:38:55.263Z,11.77
2022-09-20T18:41:24.160Z,10.60
2022-09-20T18:43:51.108Z,10.23
2022-09-20T18:46:21.494Z,11.63
2022-09-20T18:48:48.798Z,14.07
2022-09-20T18:51:16.054Z,15.98
2022-09-20T18:53:43.400Z,12.15
2022-09-20T18:56:13.190Z,10.27
2022-09-20T18:58:40.340Z,8.30
2022-09-20T19:01:26.096Z,7.77
2022-09-20T19:03:58.606Z,8.77
2022-09-20T19:06:25.521Z,8.57
2022-09-20T19:09:02.368Z,8.50
2022-09-20T19:11:37.418Z,10.77
2022-09-20T19:14:06.733Z,11.05
2022-09-20T19:16:37.221Z,13.57
2022-09-20T19:19:21.929Z,13.57
2022-09-20T19:22:24.358Z,13.90
2022-09-20T19:25:06.550Z,13.95
2022-09-20T19:27:33.308Z,12.90
2022-09-20T19:29:59.920Z,9.03
2022-09-20T19:32:27.903Z,8.90
2022-09-20T19:35:01.803Z,6.65
2022-09-20T19:37:39.037Z,6.05
2022-09-20T19:40:23.064Z,6.22
2022-09-20T19:43:09.496Z,6.93
2022-09-20T19:45:40.680Z,6.53
2022-09-20T19:48:27.442Z,7.07
2022-09-20T19:50:54.659Z,6.75
2022-09-20T19:53:27.701Z,7.97
2022-09-20T19:55:58.728Z,9.23
2022-09-20T19:58:25.882Z,9.30
2022-09-20T20:00:53.088Z,9.63
2022-09-20T20:03:20.010Z,9.97
2022-09-20T20:05:48.382Z,9.40
2022-09-20T20:08:20.157Z,10.55
2022-09-20T20:10:58.902Z,11.75
2022-09-20T20:13:50.911Z,9.88
2022-09-20T20:16:19.541Z,9.32
2022-09-20T20:19:08.304Z,8.85
2022-09-20T20:21:48.057Z,9.07
2022-09-20T20:24:26.662Z,8.63
2022-09-20T20:26:53.104Z,8.53
2022-09-20T20:29:19.862Z,9.68
2022-09-20T20:31:46.365Z,9.20
2022-09-20T20:34:16.263Z,7.93
2022-09-20T20:36:45.777Z,7.67
2022-09-20T20:39:13.232Z,8.37
2022-09-20T20:41:40.814Z,7.17
2022-09-20T20:44:07.242Z,7.30
2022-09-20T20:46:34.966Z,5.40
2022-09-20T20:49:05.189Z,3.60
2022-09-20T20:51:34.629Z,5.03
2022-09-20T20:54:01.118Z,6.03
2022-09-20T20:56:28.799Z,5.00
2022-09-20T20:58:55.639Z,6.97
2022-09-20T21:01:22.922Z,6.30
2022-09-20T21:03:50.014Z,4.93
2022-09-20T21:06:16.566Z,4.20
2022-09-20T21:08:48.864Z,5.07
2022-09-20T21:11:20.474Z,5.87
2022-09-20T21:13:49.852Z,4.67
2022-09-20T21:16:17.920Z,5.03
2022-09-20T21:18:45.013Z,5.37
2022-09-20T21:21:21.836Z,6.40
2022-09-20T21:23:49.310Z,6.70
2022-09-20T21:26:15.984Z,6.10
2022-09-20T21:28:43.456Z,7.93
2022-09-20T21:31:10.344Z,9.00
2022-09-20T21:33:37.808Z,8.43
2022-09-20T21:36:04.448Z,9.93
2022-09-20T21:38:33.857Z,9.10
2022-09-20T21:41:04.076Z,7.40
2022-09-20T21:43:30.844Z,7.70
2022-09-20T21:45:58.464Z,11.23
2022-09-20T21:48:28.079Z,11.07
2022-09-20T21:51:01.578Z,9.73
2022-09-20T21:53:28.055Z,9.30
2022-09-20T21:55:58.606Z,7.53
2022-09-20T21:58:25.198Z,8.20
2022-09-20T22:01:00.956Z,8.40
2022-09-20T22:03:34.322Z,8.90
2022-09-20T22:06:04.754Z,9.03
2022-09-20T22:08:31.230Z,9.60
2022-09-20T22:10:57.839Z,10.73
2022-09-20T22:13:24.350Z,11.70
2022-09-20T22:15:51.536Z,10.20
2022-09-20T22:18:18.098Z,10.00
2022-09-20T22:20:45.680Z,10.27
2022-09-20T22:23:12.124Z,10.07
2022-09-20T22:25:38.568Z,9.10
2022-09-20T22:28:05.107Z,9.87
2022-09-20T22:30:31.616Z,8.97
2022-09-20T22:32:58.111Z,8.23
2022-09-20T22:35:24.619Z,8.13
2022-09-20T22:37:51.042Z,8.53
2022-09-20T22:40:17.593Z,8.10
2022-09-20T22:42:44.078Z,8.73
2022-09-20T22:45:10.838Z,7.87
2022-09-20T22:47:37.587Z,7.63
2022-09-20T22:50:04.196Z,7.20
2022-09-20T22:52:30.730Z,7.13
2022-09-20T22:54:58.419Z,7.00
2022-09-20T22:57:24.878Z,7.20
2022-09-20T22:59:51.347Z,6.10
2022-09-20T23:02:17.807Z,6.37
2022-09-20T23:04:44.226Z,7.33
2022-09-20T23:07:11.043Z,6.80
2022-09-20T23:09:37.456Z,6.87
2022-09-20T23:12:03.996Z,7.50
2022-09-20T23:14:30.497Z,8.87
2022-09-20T23:16:57.001Z,10.23
2022-09-20T23:19:23.556Z,11.30
2022-09-20T23:21:50.074Z,10.00
2022-09-20T23:24:16.821Z,9.67
2022-09-20T23:26:43.455Z,9.23
2022-09-20T23:29:13.863Z,9.43
2022-09-20T23:31:41.097Z,10.17
2022-09-20T23:34:08.191Z,10.90
2022-09-20T23:36:35.941Z,10.97
2022-09-20T23:39:02.633Z,10.90
2022-09-20T23:41:29.099Z,10.80
2022-09-20T23:43:55.549Z,10.63
2022-09-20T23:46:22.717Z,10.10
2022-09-20T23:48:50.554Z,7.97
2022-09-20T23:51:17.766Z,8.43
2022-09-20T23:53:44.243Z,6.27
2022-09-20T23:56:10.934Z,6.30
2022-09-20T23:58:37.451Z,6.03
